createdAt,value
2023-03-08T00:01:51.463Z,0.80
2023-03-08T00:04:21.237Z,1.02
2023-03-08T00:06:51.043Z,0.73
2023-03-08T00:09:20.624Z,1.10
2023-03-08T00:11:50.165Z,0.90
2023-03-08T00:14:25.370Z,0.90
2023-03-08T00:16:54.915Z,1.10
2023-03-08T00:19:24.505Z,0.80
2023-03-08T00:21:54.084Z,1.02
2023-03-08T00:24:23.676Z,1.10
2023-03-08T00:26:53.234Z,1.45
2023-03-08T00:29:25.561Z,1.00
2023-03-08T00:31:55.308Z,1.27
2023-03-08T00:34:25.253Z,1.25
2023-03-08T00:36:54.835Z,1.30
2023-03-08T00:39:24.416Z,1.20
2023-03-08T00:41:54.006Z,1.20
2023-03-08T00:44:27.007Z,1.52
2023-03-08T00:46:56.565Z,1.48
2023-03-08T00:49:26.203Z,1.50
2023-03-08T00:51:55.770Z,1.60
2023-03-08T00:54:25.402Z,2.05
2023-03-08T00:56:55.109Z,1.58
2023-03-08T00:59:27.273Z,1.88
2023-03-08T01:01:57.468Z,1.70
2023-03-08T01:04:27.360Z,1.70
2023-03-08T01:06:56.996Z,1.75
2023-03-08T01:09:26.660Z,1.70
2023-03-08T01:11:56.743Z,1.73
2023-03-08T01:14:30.063Z,1.80
2023-03-08T01:16:59.690Z,2.00
2023-03-08T01:19:29.285Z,1.65
2023-03-08T01:21:58.849Z,1.90
2023-03-08T01:24:28.423Z,1.75
2023-03-08T01:27:01.015Z,1.80
2023-03-08T01:29:33.165Z,1.63
2023-03-08T01:32:02.907Z,2.00
2023-03-08T01:34:32.509Z,1.77
2023-03-08T01:37:02.163Z,1.88
2023-03-08T01:39:31.710Z,2.10
2023-03-08T01:42:01.540Z,1.75
2023-03-08T01:44:52.441Z,1.70
2023-03-08T01:47:24.303Z,1.88
2023-03-08T01:50:26.175Z,1.88
2023-03-08T01:52:58.272Z,2.05
2023-03-08T01:55:28.030Z,1.92
2023-03-08T01:57:58.820Z,1.67
2023-03-08T02:00:31.094Z,1.90
2023-03-08T02:03:03.648Z,1.98
2023-03-08T02:05:33.706Z,2.30
2023-03-08T02:08:15.426Z,2.00
2023-03-08T02:10:47.099Z,2.20
2023-03-08T02:13:17.725Z,2.08
2023-03-08T02:15:51.366Z,2.22
2023-03-08T02:18:23.374Z,2.28
2023-03-08T02:20:52.956Z,2.08
2023-03-08T02:23:28.944Z,2.45
2023-03-08T02:26:01.898Z,2.45
2023-03-08T02:28:33.377Z,2.22
2023-03-08T02:31:03.653Z,2.00
2023-03-08T02:33:36.602Z,2.35
2023-03-08T02:36:08.207Z,2.40
2023-03-08T02:38:40.435Z,2.70
2023-03-08T02:41:11.364Z,2.30
2023-03-08T02:43:40.952Z,2.50
2023-03-08T02:46:13.367Z,2.38
2023-03-08T02:48:42.975Z,2.80
2023-03-08T02:51:12.651Z,2.47
2023-03-08T02:57:10.539Z,2.28
2023-03-08T02:59:41.426Z,2.60
2023-03-08T03:02:11.151Z,2.83
2023-03-08T03:04:40.788Z,2.70
2023-03-08T03:07:10.637Z,2.83
2023-03-08T03:09:41.210Z,2.42
2023-03-08T03:12:13.468Z,2.83
2023-03-08T03:14:44.990Z,3.10
2023-03-08T03:17:14.610Z,3.17
2023-03-08T04:05:56.194Z,3.45
2023-03-08T04:08:25.885Z,2.80
2023-03-08T04:10:55.608Z,2.97
2023-03-08T04:13:25.724Z,3.17
2023-03-08T04:15:55.818Z,2.92
2023-03-08T04:18:25.808Z,3.33
2023-03-08T04:20:58.062Z,3.67
2023-03-08T04:23:27.748Z,4.05
2023-03-08T04:25:57.322Z,3.33
2023-03-08T04:28:26.964Z,3.28
2023-03-08T04:30:57.201Z,3.88
2023-03-08T04:33:26.995Z,3.63
2023-03-08T04:35:59.444Z,3.72
2023-03-08T04:38:30.156Z,3.70
2023-03-08T04:41:05.646Z,4.63
2023-03-08T04:43:49.647Z,4.70
2023-03-08T04:46:22.877Z,4.20
2023-03-08T04:48:52.964Z,3.92
2023-03-08T04:51:27.307Z,3.97
2023-03-08T04:53:59.457Z,3.80
2023-03-08T04:56:29.482Z,3.80
2023-03-08T04:58:59.116Z,5.10
2023-03-08T05:01:30.014Z,5.05
2023-03-08T05:04:00.666Z,4.22
2023-03-08T05:06:39.762Z,4.22
2023-03-08T05:09:11.222Z,4.53
2023-03-08T05:11:43.589Z,4.90
2023-03-08T05:14:13.666Z,5.90
2023-03-08T05:16:43.399Z,5.45
2023-03-08T05:19:13.732Z,4.80
2023-03-08T05:21:53.041Z,5.25
2023-03-08T05:24:23.028Z,5.60
2023-03-08T05:26:52.935Z,5.35
2023-03-08T05:29:23.560Z,4.65
2023-03-08T05:31:53.604Z,4.97
2023-03-08T05:34:24.472Z,4.80
2023-03-08T05:36:56.690Z,4.93
2023-03-08T05:39:26.371Z,4.38
2023-03-08T05:42:02.531Z,4.15
2023-03-08T05:44:39.498Z,4.00
2023-03-08T05:47:10.576Z,4.47
2023-03-08T05:49:40.314Z,4.15
2023-03-08T05:52:13.433Z,4.03
2023-03-08T05:54:43.875Z,4.50
2023-03-08T05:57:18.172Z,4.15
2023-03-08T05:59:48.592Z,3.80
2023-03-08T06:02:21.196Z,3.55
2023-03-08T06:04:53.372Z,3.90
2023-03-08T06:07:28.196Z,4.15
2023-03-08T06:10:05.209Z,4.53
2023-03-08T06:12:34.853Z,4.22
2023-03-08T06:15:09.667Z,4.18
2023-03-08T06:17:40.613Z,8.52
2023-03-08T06:20:12.115Z,8.70
2023-03-08T06:22:47.666Z,7.32
2023-03-08T06:25:18.796Z,6.13
2023-03-08T06:27:49.742Z,5.25
2023-03-08T06:30:38.157Z,5.25
2023-03-08T06:33:08.469Z,4.97
2023-03-08T06:35:38.580Z,5.25
2023-03-08T06:38:11.780Z,5.75
2023-03-08T06:40:41.620Z,5.75
2023-03-08T06:43:11.240Z,5.38
2023-03-08T06:45:41.081Z,5.95
2023-03-08T06:48:12.079Z,5.78
2023-03-08T06:50:42.701Z,7.10
2023-03-08T06:53:16.002Z,6.90
2023-03-08T06:55:56.458Z,8.15
2023-03-08T06:58:26.058Z,7.13
2023-03-08T07:00:59.797Z,7.07
2023-03-08T07:03:29.976Z,6.32
2023-03-08T07:06:01.605Z,5.63
2023-03-08T07:08:33.957Z,5.63
2023-03-08T07:11:03.536Z,5.03
2023-03-08T07:13:33.092Z,5.43
2023-03-08T07:16:02.716Z,5.15
2023-03-08T07:18:32.274Z,5.10
2023-03-08T07:21:01.816Z,4.68
2023-03-08T07:23:34.224Z,5.22
2023-03-08T07:26:07.264Z,4.70
2023-03-08T07:28:36.909Z,4.90
2023-03-08T07:31:06.888Z,4.60
2023-03-08T07:33:36.578Z,5.32
2023-03-08T07:36:06.810Z,5.40
2023-03-08T07:38:38.961Z,5.68
2023-03-08T07:41:08.798Z,6.50
2023-03-08T07:43:38.566Z,5.70
2023-03-08T07:46:15.870Z,5.65
2023-03-08T07:48:45.450Z,5.50
2023-03-08T07:51:15.223Z,4.68
2023-03-08T07:53:47.389Z,5.10
2023-03-08T07:56:17.060Z,5.18
2023-03-08T07:58:46.765Z,5.13
2023-03-08T08:01:17.099Z,5.20
2023-03-08T08:03:47.358Z,4.95
2023-03-08T08:06:17.243Z,5.60
2023-03-08T08:08:49.399Z,5.57
2023-03-08T08:11:20.231Z,4.95
2023-03-08T08:13:49.850Z,5.00
2023-03-08T08:16:20.279Z,5.90
2023-03-08T08:18:49.912Z,5.78
2023-03-08T08:21:19.516Z,5.93
2023-03-08T08:23:51.760Z,5.75
2023-03-08T08:26:22.764Z,5.80
2023-03-08T08:28:54.963Z,5.47
2023-03-08T08:31:26.855Z,5.00
2023-03-08T08:33:56.515Z,5.40
2023-03-08T08:36:26.861Z,5.60
2023-03-08T08:38:59.032Z,6.05
2023-03-08T08:41:29.788Z,5.95
2023-03-08T08:44:00.244Z,6.00
2023-03-08T08:46:31.142Z,6.07
2023-03-08T08:49:01.344Z,5.70
2023-03-08T08:51:31.156Z,6.03
2023-03-08T08:54:03.392Z,6.20
2023-03-08T08:56:33.092Z,6.10
2023-03-08T08:59:04.670Z,5.25
2023-03-08T09:01:37.081Z,5.10
2023-03-08T09:04:06.723Z,5.70
2023-03-08T09:06:36.437Z,5.07
2023-03-08T09:09:09.446Z,5.88
2023-03-08T09:11:53.442Z,5.43
2023-03-08T09:14:26.882Z,5.55
2023-03-08T09:16:56.569Z,5.72
2023-03-08T09:19:26.268Z,6.20
2023-03-08T09:21:56.001Z,6.25
2023-03-08T09:24:28.130Z,6.22
2023-03-08T09:26:57.691Z,6.20
2023-03-08T09:29:27.248Z,6.00
2023-03-08T09:31:58.690Z,6.13
2023-03-08T09:34:28.977Z,6.68
2023-03-08T09:36:58.564Z,5.68
2023-03-08T09:39:30.862Z,6.60
2023-03-08T09:42:02.398Z,6.63
2023-03-08T09:45:01.966Z,6.00
2023-03-08T09:47:40.047Z,5.60
2023-03-08T09:50:28.046Z,6.72
2023-03-08T09:53:01.971Z,6.82
2023-03-08T09:55:36.120Z,6.70
2023-03-08T09:58:14.201Z,6.80
2023-03-08T10:00:43.835Z,7.45
2023-03-08T10:03:35.462Z,7.68
2023-03-08T10:06:15.492Z,7.43
2023-03-08T10:08:52.361Z,7.82
2023-03-08T10:11:34.320Z,7.47
2023-03-08T10:14:13.613Z,7.65
2023-03-08T10:16:47.017Z,8.15
2023-03-08T10:19:20.303Z,8.32
2023-03-08T10:21:50.877Z,8.30
2023-03-08T10:24:27.185Z,8.43
2023-03-08T10:27:09.545Z,7.80
2023-03-08T10:29:39.133Z,8.05
2023-03-08T10:32:09.340Z,8.13
2023-03-08T10:34:39.062Z,8.27
2023-03-08T10:37:09.987Z,8.43
2023-03-08T10:39:40.351Z,8.23
2023-03-08T10:42:18.783Z,8.15
2023-03-08T10:44:57.207Z,9.02
2023-03-08T10:47:29.894Z,7.50
2023-03-08T10:50:08.432Z,8.65
2023-03-08T10:52:38.307Z,6.60
2023-03-08T10:55:13.934Z,6.57
2023-03-08T10:57:54.029Z,5.72
2023-03-08T11:00:43.929Z,4.10
2023-03-08T11:03:17.400Z,4.55
2023-03-08T11:05:59.110Z,3.85
2023-03-08T11:08:31.981Z,3.85
2023-03-08T11:11:10.748Z,3.70
2023-03-08T11:13:46.575Z,4.55
2023-03-08T11:19:09.782Z,2.97
2023-03-08T11:21:50.706Z,4.88
2023-03-08T11:24:32.960Z,3.95
2023-03-08T11:27:19.622Z,3.00
2023-03-08T11:30:05.981Z,4.85
2023-03-08T11:32:50.352Z,5.68
2023-03-08T11:35:27.406Z,4.78
2023-03-08T11:38:02.487Z,5.35
2023-03-08T11:40:40.755Z,5.35
2023-03-08T11:43:26.310Z,5.82
2023-03-08T11:46:04.492Z,5.22
2023-03-08T11:49:03.807Z,6.40
2023-03-08T11:51:42.917Z,8.60
2023-03-08T11:54:20.148Z,6.65
2023-03-08T11:56:54.286Z,7.57
2023-03-08T11:59:32.511Z,7.43
2023-03-08T12:02:14.333Z,7.55
2023-03-08T12:04:48.699Z,5.20
2023-03-08T12:07:25.305Z,6.03
2023-03-08T12:10:02.172Z,5.65
2023-03-08T12:12:36.254Z,5.22
2023-03-08T12:15:16.995Z,4.90
2023-03-08T12:17:55.650Z,4.20
2023-03-08T12:20:25.689Z,5.22
2023-03-08T12:23:03.273Z,4.35
2023-03-08T12:25:35.812Z,4.82
2023-03-08T12:28:09.706Z,4.72
2023-03-08T12:30:50.432Z,4.45
2023-03-08T12:33:23.632Z,4.32
2023-03-08T12:35:55.814Z,3.83
2023-03-08T12:38:34.782Z,4.00
2023-03-08T12:41:07.199Z,3.70
2023-03-08T12:43:38.784Z,3.50
2023-03-08T12:46:10.775Z,3.35
2023-03-08T12:48:51.968Z,3.10
2023-03-08T12:51:26.975Z,4.03
2023-03-08T12:54:03.319Z,5.25
2023-03-08T12:56:35.855Z,3.72
2023-03-08T12:59:26.732Z,3.33
2023-03-08T13:02:04.405Z,4.93
2023-03-08T13:04:41.763Z,3.95
2023-03-08T13:07:24.977Z,3.80
2023-03-08T13:10:00.986Z,2.70
2023-03-08T13:12:42.839Z,2.90
2023-03-08T13:15:26.024Z,3.45
2023-03-08T13:18:08.519Z,2.78
2023-03-08T13:21:00.915Z,3.08
2023-03-08T13:23:36.347Z,3.42
2023-03-08T13:26:19.141Z,2.92
2023-03-08T13:28:49.510Z,4.50
2023-03-08T13:31:22.245Z,9.65
2023-03-08T13:33:54.912Z,3.67
2023-03-08T13:36:29.017Z,4.07
2023-03-08T13:39:01.147Z,2.80
2023-03-08T13:41:38.481Z,2.88
2023-03-08T13:44:10.409Z,2.92
2023-03-08T13:46:42.995Z,3.00
2023-03-08T13:49:19.022Z,2.88
2023-03-08T13:51:54.952Z,2.45
2023-03-08T13:54:29.931Z,2.38
2023-03-08T13:57:00.494Z,2.40
2023-03-08T13:59:30.226Z,2.20
2023-03-08T14:02:00.360Z,2.17
2023-03-08T14:04:31.756Z,1.90
2023-03-08T14:07:07.285Z,1.95
2023-03-08T14:09:36.922Z,2.10
2023-03-08T14:12:09.970Z,1.58
2023-03-08T14:14:43.342Z,2.00
2023-03-08T14:17:22.418Z,1.80
2023-03-08T14:19:56.902Z,2.70
2023-03-08T14:22:39.622Z,2.13
2023-03-08T14:25:24.752Z,2.35
2023-03-08T14:27:55.061Z,2.65
2023-03-08T14:30:26.834Z,2.45
2023-03-08T14:33:07.168Z,2.45
2023-03-08T14:35:39.803Z,2.30
2023-03-08T14:38:25.949Z,2.55
2023-03-08T14:43:27.565Z,1.95
2023-03-08T14:45:59.048Z,2.10
2023-03-08T14:48:32.786Z,2.28
2023-03-08T14:51:04.579Z,2.53
2023-03-08T14:53:38.904Z,2.70
2023-03-08T14:56:10.014Z,2.70
2023-03-08T14:58:42.681Z,2.92
2023-03-08T15:01:12.532Z,3.00
2023-03-08T15:03:42.142Z,2.63
2023-03-08T15:06:18.260Z,2.50
2023-03-08T15:08:51.526Z,2.90
2023-03-08T15:11:22.002Z,3.10
2023-03-08T15:13:52.223Z,2.30
2023-03-08T15:16:21.932Z,3.00
2023-03-08T15:18:51.580Z,2.40
2023-03-08T15:21:25.120Z,2.67
2023-03-08T15:23:57.703Z,3.10
2023-03-08T15:26:31.538Z,3.15
2023-03-08T15:29:03.424Z,7.97
2023-03-08T15:31:33.592Z,3.97
2023-03-08T15:34:03.855Z,3.20
2023-03-08T15:36:35.777Z,3.47
2023-03-08T15:39:08.267Z,3.53
2023-03-08T15:41:38.154Z,3.42
2023-03-08T15:44:07.725Z,3.42
2023-03-08T15:46:38.020Z,3.13
2023-03-08T15:49:08.578Z,3.33
2023-03-08T15:51:39.604Z,3.05
2023-03-08T15:54:13.934Z,2.90
2023-03-08T15:56:43.668Z,3.30
2023-03-08T15:59:14.292Z,3.33
2023-03-08T16:01:43.912Z,3.25
2023-03-08T16:04:13.804Z,3.40
2023-03-08T16:06:44.259Z,3.70
2023-03-08T16:09:16.390Z,4.50
2023-03-08T16:11:48.127Z,4.40
2023-03-08T16:14:18.791Z,4.90
2023-03-08T16:16:48.569Z,5.10
2023-03-08T16:19:18.258Z,5.45
2023-03-08T16:21:48.128Z,5.03
2023-03-08T16:24:20.307Z,5.55
2023-03-08T16:26:50.111Z,6.05
2023-03-08T16:29:19.685Z,5.50
2023-03-08T16:31:49.390Z,5.50
2023-03-08T16:34:19.798Z,5.60
2023-03-08T16:36:49.336Z,5.70
2023-03-08T16:39:21.608Z,5.97
2023-03-08T16:41:51.689Z,6.30
2023-03-08T16:44:23.083Z,6.82
2023-03-08T16:46:53.162Z,6.80
2023-03-08T16:49:28.410Z,6.53
2023-03-08T16:51:58.783Z,6.90
2023-03-08T16:54:31.103Z,7.40
2023-03-08T16:57:13.044Z,7.65
2023-03-08T16:59:47.702Z,7.00
2023-03-08T17:02:18.969Z,8.43
2023-03-08T17:04:49.627Z,8.77
2023-03-08T17:07:19.675Z,9.73
2023-03-08T17:09:52.189Z,9.45
2023-03-08T17:12:21.784Z,11.65
2023-03-08T17:14:51.407Z,10.18
2023-03-08T17:17:21.105Z,9.73
2023-03-08T17:19:54.124Z,11.55
2023-03-08T17:22:23.806Z,13.50
2023-03-08T17:24:56.126Z,13.77
2023-03-08T17:27:25.703Z,13.73
2023-03-08T17:29:55.371Z,14.38
2023-03-08T17:32:25.033Z,14.32
2023-03-08T17:34:54.749Z,16.58
2023-03-08T17:37:24.414Z,14.85
2023-03-08T17:39:56.774Z,14.73
2023-03-08T17:42:26.528Z,13.07
2023-03-08T17:44:56.161Z,14.45
2023-03-08T17:47:25.836Z,15.93
2023-03-08T17:49:55.418Z,14.25
2023-03-08T17:52:25.040Z,13.35
2023-03-08T17:54:57.189Z,12.32
2023-03-08T17:57:27.339Z,13.05
2023-03-08T17:59:57.278Z,13.45
2023-03-08T18:02:27.073Z,14.60
2023-03-08T18:04:56.724Z,13.52
2023-03-08T18:07:27.831Z,13.93
2023-03-08T18:10:01.890Z,14.43
2023-03-08T18:12:32.159Z,13.63
2023-03-08T18:15:02.015Z,15.52
2023-03-08T18:17:34.196Z,14.55
2023-03-08T18:20:05.601Z,14.70
2023-03-08T18:22:35.391Z,14.55
2023-03-08T18:25:08.362Z,16.17
2023-03-08T18:27:39.578Z,14.35
2023-03-08T18:30:11.930Z,14.55
2023-03-08T18:32:42.158Z,14.80
2023-03-08T18:35:13.445Z,15.68
2023-03-08T18:37:43.106Z,13.65
2023-03-08T18:40:15.970Z,14.15
2023-03-08T18:42:46.047Z,14.35
2023-03-08T18:45:17.156Z,13.23
2023-03-08T18:47:46.967Z,12.20
2023-03-08T18:50:16.885Z,10.88
2023-03-08T18:52:46.487Z,11.10
2023-03-08T18:55:18.728Z,10.43
2023-03-08T18:57:48.306Z,10.10
2023-03-08T19:00:19.483Z,10.10
2023-03-08T19:02:49.040Z,9.48
2023-03-08T19:05:19.077Z,10.02
2023-03-08T19:07:48.638Z,9.82
2023-03-08T19:10:21.082Z,11.23
2023-03-08T19:12:50.671Z,9.85
2023-03-08T19:15:20.590Z,9.52
2023-03-08T19:17:50.172Z,11.60
2023-03-08T19:20:20.541Z,10.65
2023-03-08T19:22:50.125Z,11.20
2023-03-08T19:25:22.307Z,11.15
2023-03-08T19:27:51.882Z,10.63
2023-03-08T19:30:23.302Z,12.68
2023-03-08T19:32:52.862Z,11.23
2023-03-08T19:35:23.113Z,11.95
2023-03-08T19:37:53.519Z,10.70
2023-03-08T19:40:25.752Z,10.52
2023-03-08T19:42:55.506Z,10.27
2023-03-08T19:45:25.394Z,10.60
2023-03-08T19:47:55.864Z,10.32
2023-03-08T19:50:25.773Z,10.57
2023-03-08T19:52:55.609Z,11.18
2023-03-08T19:55:28.278Z,11.10
2023-03-08T19:57:57.896Z,9.73
2023-03-08T20:00:28.857Z,10.07
2023-03-08T20:02:59.547Z,10.15
2023-03-08T20:05:29.463Z,9.75
2023-03-08T20:07:59.311Z,10.68
2023-03-08T20:10:31.760Z,10.82
2023-03-08T20:13:01.333Z,10.73
2023-03-08T20:15:31.101Z,11.30
2023-03-08T20:18:01.104Z,9.70
2023-03-08T20:20:30.721Z,10.88
2023-03-08T20:23:00.741Z,10.38
2023-03-08T20:25:34.792Z,11.13
2023-03-08T20:28:04.914Z,12.85
2023-03-08T20:30:34.478Z,12.57
2023-03-08T20:33:04.594Z,12.07
2023-03-08T20:35:34.436Z,13.85
2023-03-08T20:38:04.111Z,13.48
2023-03-08T20:40:39.240Z,13.15
2023-03-08T20:45:42.326Z,15.45
2023-03-08T20:48:12.057Z,16.63
2023-03-08T20:50:41.818Z,14.15
2023-03-08T20:53:11.606Z,14.30
2023-03-08T20:55:44.036Z,14.13
2023-03-08T20:58:13.809Z,15.13
2023-03-08T21:00:43.661Z,13.57
2023-03-08T21:03:13.447Z,11.90
2023-03-08T21:05:43.056Z,12.68
2023-03-08T21:08:12.767Z,13.07
2023-03-08T21:10:44.906Z,11.70
2023-03-08T21:13:14.662Z,12.10
2023-03-08T21:15:44.355Z,12.45
2023-03-08T21:18:13.972Z,13.25
2023-03-08T21:20:44.949Z,11.15
2023-03-08T21:23:16.523Z,11.18
2023-03-08T21:25:48.670Z,11.93
2023-03-08T21:28:18.530Z,10.40
2023-03-08T21:30:48.850Z,12.15
2023-03-08T21:33:18.821Z,9.77
2023-03-08T21:35:48.401Z,12.15
2023-03-08T21:38:17.969Z,10.30
2023-03-08T21:40:50.107Z,10.60
2023-03-08T21:43:19.675Z,11.57
2023-03-08T21:45:49.269Z,12.48
2023-03-08T21:48:18.852Z,10.63
2023-03-08T21:50:48.409Z,10.05
2023-03-08T21:53:17.982Z,11.10
2023-03-08T21:55:50.130Z,10.77
2023-03-08T21:58:19.724Z,12.27
2023-03-08T22:00:49.332Z,11.98
2023-03-08T22:03:19.258Z,11.82
2023-03-08T22:05:48.908Z,10.90
2023-03-08T22:08:18.453Z,13.13
2023-03-08T22:10:50.721Z,12.10
2023-03-08T22:13:20.284Z,12.57
2023-03-08T22:15:52.502Z,11.88
2023-03-08T22:18:25.861Z,12.43
2023-03-08T22:20:56.254Z,11.52
2023-03-08T22:23:26.513Z,12.00
2023-03-08T22:25:58.647Z,12.73
2023-03-08T22:28:28.265Z,12.25
2023-03-08T22:30:57.829Z,11.80
2023-03-08T22:33:27.356Z,10.93
2023-03-08T22:35:56.980Z,12.65
2023-03-08T22:38:26.548Z,13.43
2023-03-08T22:40:58.690Z,11.88
2023-03-08T22:43:28.602Z,11.60
2023-03-08T22:45:58.220Z,11.20
2023-03-08T22:48:27.843Z,11.15
2023-03-08T22:51:10.297Z,11.18
2023-03-08T22:53:40.581Z,10.65
2023-03-08T22:56:21.659Z,11.85
2023-03-08T22:58:51.650Z,11.60
2023-03-08T23:01:22.977Z,10.93
2023-03-08T23:03:53.692Z,12.30
2023-03-08T23:06:23.325Z,9.93
2023-03-08T23:08:53.280Z,10.15
2023-03-08T23:11:25.822Z,11.60
2023-03-08T23:13:55.760Z,9.88
2023-03-08T23:16:25.402Z,10.60
2023-03-08T23:18:56.516Z,10.30
2023-03-08T23:21:29.370Z,10.38
2023-03-08T23:23:59.522Z,9.90
2023-03-08T23:26:32.805Z,10.52
2023-03-08T23:29:04.916Z,8.93
2023-03-08T23:31:36.011Z,9.50
2023-03-08T23:34:07.492Z,9.60
2023-03-08T23:36:37.100Z,8.95
2023-03-08T23:39:06.773Z,8.63
2023-03-08T23:41:38.936Z,7.85
2023-03-08T23:44:08.530Z,9.43
2023-03-08T23:46:38.345Z,9.13
2023-03-08T23:49:07.997Z,8.98
2023-03-08T23:51:37.580Z,8.40
2023-03-08T23:54:07.327Z,9.02
2023-03-08T23:56:41.397Z,8.13
2023-03-08T23:59:17.545Z,10.20
